createdAt,value
2023-03-13T00:01:28.227Z,101069.34
2023-03-13T00:03:56.656Z,101067.63
2023-03-13T00:06:34.186Z,101065.84
2023-03-13T00:09:05.720Z,101070.44
2023-03-13T00:11:34.303Z,101073.94
2023-03-13T00:14:03.953Z,101075.78
2023-03-13T00:16:34.724Z,101071.28
2023-03-13T00:19:03.373Z,101069.56
2023-03-13T00:21:32.012Z,101073.22
2023-03-13T00:24:00.634Z,101078.66
2023-03-13T00:26:30.276Z,101068.84
2023-03-13T00:28:58.834Z,101069.84
2023-03-13T00:31:32.056Z,101066.19
2023-03-13T00:34:02.224Z,101064.50
2023-03-13T00:36:34.114Z,101059.31
2023-03-13T00:39:05.085Z,101073.44
2023-03-13T00:41:37.262Z,101067.28
2023-03-13T00:44:06.955Z,101061.13
2023-03-13T00:46:35.746Z,101072.72
2023-03-13T00:49:04.264Z,101075.28
2023-03-13T00:51:35.803Z,101070.06
2023-03-13T00:54:05.214Z,101064.75
2023-03-13T00:56:35.140Z,101068.41
2023-03-13T00:59:03.764Z,101055.91
2023-03-13T01:01:51.331Z,101056.75
2023-03-13T01:04:19.703Z,101049.00
2023-03-13T01:06:48.724Z,101049.00
2023-03-13T01:09:17.188Z,101040.06
2023-03-13T01:11:46.592Z,101041.97
2023-03-13T01:14:19.071Z,101037.41
2023-03-13T01:16:48.098Z,101043.69
2023-03-13T01:19:16.919Z,101043.69
2023-03-13T01:21:47.525Z,101049.97
2023-03-13T01:24:17.339Z,101049.97
2023-03-13T01:26:47.356Z,101046.47
2023-03-13T01:29:17.526Z,101044.75
2023-03-13T01:31:46.902Z,101037.75
2023-03-13T01:34:15.427Z,101025.41
2023-03-13T01:36:44.442Z,101041.38
2023-03-13T01:39:12.992Z,101042.25
2023-03-13T01:41:41.734Z,101035.22
2023-03-13T01:44:28.941Z,101032.53
2023-03-13T01:46:58.441Z,101026.38
2023-03-13T01:49:33.631Z,101029.16
2023-03-13T01:52:27.271Z,101021.19
2023-03-13T01:55:16.465Z,101021.19
2023-03-13T01:57:51.492Z,101023.84
2023-03-13T02:00:29.954Z,101022.13
2023-03-13T02:03:01.711Z,101023.13
2023-03-13T02:05:30.365Z,101030.13
2023-03-13T02:08:14.093Z,101037.25
2023-03-13T02:10:49.241Z,101044.41
2023-03-13T02:13:18.533Z,101039.09
2023-03-13T02:15:47.711Z,101039.19
2023-03-13T02:18:18.433Z,101039.91
2023-03-13T02:20:48.290Z,101035.69
2023-03-13T02:23:25.192Z,101034.00
2023-03-13T02:25:53.993Z,101041.97
2023-03-13T02:28:34.062Z,101042.84
2023-03-13T02:31:05.609Z,101031.31
2023-03-13T02:33:39.439Z,101020.06
2023-03-13T02:36:08.740Z,101006.78
2023-03-13T02:38:52.204Z,100996.88
2023-03-13T02:41:20.695Z,100989.97
2023-03-13T02:43:49.673Z,100991.69
2023-03-13T02:46:20.825Z,100987.31
2023-03-13T02:48:55.654Z,100995.28
2023-03-13T02:51:33.354Z,101000.59
2023-03-13T02:54:09.688Z,100997.13
2023-03-13T02:56:40.876Z,101011.38
2023-03-13T02:59:11.379Z,101017.56
2023-03-13T03:01:43.340Z,101020.06
2023-03-13T03:04:12.386Z,101021.06
2023-03-13T03:06:40.831Z,101031.81
2023-03-13T03:09:09.956Z,101037.03
2023-03-13T03:11:39.113Z,101040.63
2023-03-13T03:14:13.232Z,101037.13
2023-03-13T03:16:45.343Z,101028.44
2023-03-13T03:19:14.212Z,101023.22
2023-03-13T03:21:43.087Z,101031.09
2023-03-13T03:24:12.024Z,101035.69
2023-03-13T03:26:40.497Z,101039.19
2023-03-13T03:29:15.403Z,101046.22
2023-03-13T03:31:44.179Z,101052.50
2023-03-13T03:34:14.837Z,101062.31
2023-03-13T03:36:43.304Z,101059.88
2023-03-13T03:39:12.074Z,101057.97
2023-03-13T03:41:41.560Z,101063.28
2023-03-13T03:44:10.482Z,101072.22
2023-03-13T03:46:52.866Z,101069.66
2023-03-13T03:49:23.396Z,101060.75
2023-03-13T03:51:52.118Z,101064.22
2023-03-13T03:54:27.208Z,101062.53
2023-03-13T03:56:55.802Z,101058.19
2023-03-13T03:59:24.869Z,101046.72
2023-03-13T04:02:03.864Z,101058.31
2023-03-13T04:04:35.102Z,101060.13
2023-03-13T04:07:12.837Z,101065.44
2023-03-13T04:09:42.721Z,101058.41
2023-03-13T04:12:16.180Z,101068.09
2023-03-13T04:14:47.699Z,101065.44
2023-03-13T04:17:17.368Z,101079.69
2023-03-13T04:19:47.893Z,101072.69
2023-03-13T04:22:16.414Z,101066.53
2023-03-13T04:24:51.194Z,101068.22
2023-03-13T04:27:21.805Z,101064.00
2023-03-13T04:29:52.184Z,101057.94
2023-03-13T04:32:39.388Z,101056.13
2023-03-13T04:35:26.724Z,101058.69
2023-03-13T04:38:11.949Z,101053.34
2023-03-13T04:41:01.259Z,101056.97
2023-03-13T04:43:48.184Z,101046.31
2023-03-13T04:46:32.566Z,101054.19
2023-03-13T04:49:36.501Z,101052.38
2023-03-13T04:52:31.515Z,101044.75
2023-03-13T04:55:16.094Z,101041.25
2023-03-13T04:58:03.380Z,101034.97
2023-03-13T05:01:02.501Z,101037.72
2023-03-13T05:03:49.995Z,101042.94
2023-03-13T05:06:37.311Z,101048.25
2023-03-13T05:09:21.298Z,101056.97
2023-03-13T05:12:25.485Z,101057.69
2023-03-13T05:15:07.913Z,101053.97
2023-03-13T05:18:14.593Z,101049.09
2023-03-13T05:21:04.168Z,101052.38
2023-03-13T05:23:50.987Z,101046.69
2023-03-13T05:26:40.708Z,101051.56
2023-03-13T05:29:27.716Z,101048.41
2023-03-13T05:32:08.784Z,101049.13
2023-03-13T05:34:42.997Z,101041.97
2023-03-13T05:37:30.316Z,101056.75
2023-03-13T05:40:31.025Z,101055.91
2023-03-13T05:42:59.956Z,101063.06
2023-03-13T05:45:45.569Z,101063.06
2023-03-13T05:48:38.885Z,101054.31
2023-03-13T05:51:19.108Z,101053.47
2023-03-13T05:54:07.592Z,101048.28
2023-03-13T05:56:55.244Z,101057.94
2023-03-13T05:59:36.580Z,101049.22
2023-03-13T06:02:23.670Z,101052.88
2023-03-13T06:04:53.460Z,101065.44
2023-03-13T06:07:22.149Z,101066.19
2023-03-13T06:09:51.051Z,101076.94
2023-03-13T06:12:19.700Z,101073.41
2023-03-13T06:14:48.562Z,101085.03
2023-03-13T06:17:49.378Z,101074.50
2023-03-13T06:20:18.796Z,101079.84
2023-03-13T06:22:47.378Z,101085.16
2023-03-13T06:25:16.306Z,101078.28
2023-03-13T06:27:45.119Z,101080.94
2023-03-13T06:30:14.263Z,101078.28
2023-03-13T06:32:42.994Z,101085.41
2023-03-13T06:35:11.918Z,101084.56
2023-03-13T06:37:40.518Z,101097.84
2023-03-13T06:40:10.695Z,101087.47
2023-03-13T06:42:39.147Z,101086.38
2023-03-13T06:45:08.947Z,101101.50
2023-03-13T06:47:37.337Z,101108.66
2023-03-13T06:50:06.817Z,101116.75
2023-03-13T06:52:43.526Z,101112.16
2023-03-13T06:55:13.464Z,101109.59
2023-03-13T06:57:42.169Z,101094.47
2023-03-13T07:00:14.670Z,101088.44
2023-03-13T07:02:43.209Z,101085.75
2023-03-13T07:05:14.738Z,101094.72
2023-03-13T07:07:43.806Z,101089.41
2023-03-13T07:10:12.761Z,101099.91
2023-03-13T07:12:41.518Z,101105.84
2023-03-13T07:15:11.401Z,101102.84
2023-03-13T07:17:40.003Z,101100.03
2023-03-13T07:20:10.944Z,101093.25
2023-03-13T07:22:39.460Z,101107.56
2023-03-13T07:25:09.847Z,101111.88
2023-03-13T07:27:38.902Z,101116.38
2023-03-13T07:30:08.451Z,101120.00
2023-03-13T07:32:37.163Z,101119.16
2023-03-13T07:35:07.104Z,101104.28
2023-03-13T07:37:35.661Z,101107.78
2023-03-13T07:40:05.401Z,101107.06
2023-03-13T07:42:33.853Z,101105.38
2023-03-13T07:45:02.672Z,101104.28
2023-03-13T07:47:31.138Z,101098.13
2023-03-13T07:50:00.261Z,101095.56
2023-03-13T07:52:28.825Z,101090.13
2023-03-13T07:54:57.851Z,101090.13
2023-03-13T07:57:26.332Z,101092.53
2023-03-13T07:59:54.979Z,101083.81
2023-03-13T08:02:23.385Z,101089.88
2023-03-13T08:04:55.997Z,101083.72
2023-03-13T08:07:25.179Z,101085.53
2023-03-13T08:09:53.913Z,101087.22
2023-03-13T08:12:22.339Z,101086.38
2023-03-13T08:14:51.100Z,101083.59
2023-03-13T08:17:19.568Z,101083.72
2023-03-13T08:19:48.260Z,101082.88
2023-03-13T08:22:16.732Z,101069.56
2023-03-13T08:24:45.477Z,101072.22
2023-03-13T08:27:13.946Z,101072.97
2023-03-13T08:29:42.865Z,101084.56
2023-03-13T08:32:11.417Z,101089.75
2023-03-13T08:34:40.265Z,101102.94
2023-03-13T08:37:08.883Z,101109.22
2023-03-13T08:39:38.269Z,101106.56
2023-03-13T08:42:09.379Z,101106.56
2023-03-13T08:44:38.247Z,101104.88
2023-03-13T08:47:08.035Z,101099.56
2023-03-13T08:49:36.992Z,101108.28
2023-03-13T08:52:06.660Z,101115.53
2023-03-13T08:54:35.411Z,101113.81
2023-03-13T08:57:04.182Z,101122.69
2023-03-13T08:59:33.031Z,101128.00
2023-03-13T09:02:03.525Z,101124.47
2023-03-13T09:04:32.482Z,101122.69
2023-03-13T09:07:00.895Z,101124.25
2023-03-13T09:09:29.705Z,101122.31
2023-03-13T09:11:58.332Z,101124.97
2023-03-13T09:14:27.086Z,101129.31
2023-03-13T09:16:56.585Z,101123.97
2023-03-13T09:19:25.383Z,101127.41
2023-03-13T09:21:53.989Z,101120.38
2023-03-13T09:24:22.839Z,101127.41
2023-03-13T09:27:00.670Z,101116.50
2023-03-13T09:29:29.945Z,101112.00
2023-03-13T09:31:58.304Z,101108.50
2023-03-13T09:34:28.025Z,101106.69
2023-03-13T09:36:56.524Z,101105.00
2023-03-13T09:39:25.236Z,101104.03
2023-03-13T09:42:15.122Z,101096.03
2023-03-13T09:45:37.056Z,101094.38
2023-03-13T09:48:19.513Z,101088.22
2023-03-13T09:51:03.663Z,101080.06
2023-03-13T09:53:58.071Z,101088.22
2023-03-13T09:56:37.483Z,101093.31
2023-03-13T09:59:48.518Z,101090.16
2023-03-13T10:02:27.791Z,101087.34
2023-03-13T10:05:22.036Z,101093.53
2023-03-13T10:07:51.122Z,101097.13
2023-03-13T10:10:37.846Z,101095.47
2023-03-13T10:13:21.640Z,101092.91
2023-03-13T10:16:05.155Z,101093.75
2023-03-13T10:18:33.832Z,101098.84
2023-03-13T10:21:12.736Z,101095.59
2023-03-13T10:23:58.359Z,101098.84
2023-03-13T10:26:33.321Z,101095.22
2023-03-13T10:29:26.968Z,101100.78
2023-03-13T10:32:01.848Z,101096.41
2023-03-13T10:35:00.943Z,101090.16
2023-03-13T10:37:42.651Z,101089.53
2023-03-13T10:40:29.650Z,101082.38
2023-03-13T10:43:07.160Z,101073.69
2023-03-13T10:45:37.270Z,101071.50
2023-03-13T10:48:31.352Z,101074.88
2023-03-13T10:51:01.912Z,101063.03
2023-03-13T10:53:30.864Z,101056.00
2023-03-13T10:56:12.751Z,101064.97
2023-03-13T10:58:52.095Z,101066.78
2023-03-13T11:01:25.699Z,101067.38
2023-03-13T11:03:56.117Z,101067.53
2023-03-13T11:06:35.521Z,101064.97
2023-03-13T11:09:14.955Z,101061.31
2023-03-13T11:11:53.553Z,101057.59
2023-03-13T11:14:26.029Z,101051.91
2023-03-13T11:17:05.562Z,101043.69
2023-03-13T11:20:41.290Z,101039.81
2023-03-13T11:23:21.796Z,101033.66
2023-03-13T11:25:50.101Z,101031.81
2023-03-13T11:28:48.361Z,101026.72
2023-03-13T11:31:32.368Z,101034.09
2023-03-13T11:34:31.902Z,101023.00
2023-03-13T11:37:15.210Z,101013.81
2023-03-13T11:40:22.837Z,101016.09
2023-03-13T11:43:25.901Z,101018.53
2023-03-13T11:46:26.851Z,101022.38
2023-03-13T11:49:14.887Z,101011.88
2023-03-13T11:52:05.440Z,101015.28
2023-03-13T11:55:22.073Z,101000.63
2023-03-13T11:58:17.155Z,100994.81
2023-03-13T12:00:54.320Z,100981.09
2023-03-13T12:03:34.961Z,100989.47
2023-03-13T12:06:03.627Z,100979.22
2023-03-13T12:08:45.694Z,100973.13
2023-03-13T12:11:37.357Z,100980.75
2023-03-13T12:14:28.843Z,100972.50
2023-03-13T12:17:46.619Z,100967.88
2023-03-13T12:20:47.622Z,100954.56
2023-03-13T12:23:37.914Z,100952.31
2023-03-13T12:26:21.431Z,100947.22
2023-03-13T12:29:01.940Z,100953.13
2023-03-13T12:32:30.071Z,100956.06
2023-03-13T12:35:19.836Z,100943.50
2023-03-13T12:38:10.244Z,100927.25
2023-03-13T12:41:13.582Z,100925.34
2023-03-13T12:43:44.141Z,100910.81
2023-03-13T12:46:43.146Z,100913.59
2023-03-13T12:49:49.084Z,100895.69
2023-03-13T12:52:29.202Z,100891.19
2023-03-13T12:55:42.063Z,100886.69
2023-03-13T12:58:31.113Z,100884.63
2023-03-13T13:01:04.407Z,100874.25
2023-03-13T13:03:39.543Z,100874.97
2023-03-13T13:06:15.969Z,100878.34
2023-03-13T13:08:54.622Z,100875.94
2023-03-13T13:11:38.723Z,100864.56
2023-03-13T13:14:19.106Z,100867.81
2023-03-13T13:16:54.631Z,100853.91
2023-03-13T13:19:26.218Z,100847.47
2023-03-13T13:22:38.302Z,100850.13
2023-03-13T13:25:18.452Z,100854.50
2023-03-13T13:27:52.192Z,100854.63
2023-03-13T13:30:20.564Z,100850.72
2023-03-13T13:33:19.402Z,100843.47
2023-03-13T13:35:48.454Z,100843.84
2023-03-13T13:38:20.304Z,100837.56
2023-03-13T13:41:15.464Z,100830.44
2023-03-13T13:43:46.004Z,100834.63
2023-03-13T13:46:34.013Z,100829.59
2023-03-13T13:49:06.007Z,100818.06
2023-03-13T13:51:41.494Z,100823.41
2023-03-13T13:54:42.620Z,100825.69
2023-03-13T13:57:46.752Z,100813.47
2023-03-13T14:00:25.605Z,100823.59
2023-03-13T14:02:55.769Z,100810.16
2023-03-13T14:05:31.578Z,100802.28
2023-03-13T14:08:08.955Z,100806.41
2023-03-13T14:10:47.129Z,100802.75
2023-03-13T14:13:21.025Z,100809.78
2023-03-13T14:15:53.472Z,100799.97
2023-03-13T14:18:26.293Z,100792.09
2023-03-13T14:21:00.548Z,100793.53
2023-03-13T14:23:30.849Z,100794.22
2023-03-13T14:25:59.689Z,100795.94
2023-03-13T14:28:29.431Z,100796.53
2023-03-13T14:30:58.880Z,100784.03
2023-03-13T14:33:28.073Z,100783.03
2023-03-13T14:35:58.233Z,100783.03
2023-03-13T14:38:30.302Z,100781.25
2023-03-13T14:40:59.148Z,100781.25
2023-03-13T14:43:40.896Z,100771.69
2023-03-13T14:46:26.301Z,100776.75
2023-03-13T14:48:56.290Z,100777.59
2023-03-13T14:51:28.141Z,100766.50
2023-03-13T14:53:57.711Z,100764.09
2023-03-13T14:56:35.722Z,100758.06
2023-03-13T14:59:26.271Z,100751.50
2023-03-13T15:02:32.716Z,100744.22
2023-03-13T15:05:03.786Z,100749.41
2023-03-13T15:07:40.860Z,100737.75
2023-03-13T15:10:41.088Z,100743.09
2023-03-13T15:13:34.865Z,100735.81
2023-03-13T15:16:13.060Z,100725.44
2023-03-13T15:18:41.959Z,100727.66
2023-03-13T15:21:17.548Z,100719.78
2023-03-13T15:24:13.611Z,100714.19
2023-03-13T15:26:42.173Z,100722.31
2023-03-13T15:29:11.646Z,100720.66
2023-03-13T15:31:40.401Z,100726.22
2023-03-13T15:34:13.630Z,100725.41
2023-03-13T15:36:42.736Z,100725.41
2023-03-13T15:39:19.816Z,100721.03
2023-03-13T15:41:48.249Z,100715.56
2023-03-13T15:44:17.093Z,100718.00
2023-03-13T15:46:46.397Z,100705.50
2023-03-13T15:49:15.159Z,100711.41
2023-03-13T15:51:43.630Z,100714.19
2023-03-13T15:54:12.481Z,100711.41
2023-03-13T15:56:40.963Z,100705.38
2023-03-13T15:59:13.246Z,100710.56
2023-03-13T16:01:43.635Z,100713.38
2023-03-13T16:04:13.687Z,100712.66
2023-03-13T16:06:42.258Z,100711.78
2023-03-13T16:09:13.804Z,100711.09
2023-03-13T16:11:42.356Z,100713.03
2023-03-13T16:14:11.116Z,100703.25
2023-03-13T16:16:39.610Z,100703.50
2023-03-13T16:19:10.123Z,100702.78
2023-03-13T16:21:40.575Z,100702.78
2023-03-13T16:24:09.338Z,100703.03
2023-03-13T16:26:37.933Z,100700.66
2023-03-13T16:29:06.653Z,100706.81
2023-03-13T16:31:35.209Z,100700.91
2023-03-13T16:34:04.188Z,100705.41
2023-03-13T16:36:33.155Z,100696.59
2023-03-13T16:39:05.869Z,100692.50
2023-03-13T16:41:34.378Z,100693.34
2023-03-13T16:44:03.758Z,100687.44
2023-03-13T16:46:55.557Z,100691.09
2023-03-13T16:49:33.082Z,100692.16
2023-03-13T16:52:01.623Z,100682.50
2023-03-13T16:54:30.327Z,100680.81
2023-03-13T16:56:58.756Z,100684.31
2023-03-13T16:59:27.616Z,100684.31
2023-03-13T17:01:56.268Z,100687.97
2023-03-13T17:04:25.149Z,100680.94
2023-03-13T17:06:53.705Z,100673.34
2023-03-13T17:09:22.525Z,100683.88
2023-03-13T17:11:50.983Z,100676.84
2023-03-13T17:14:19.695Z,100668.63
2023-03-13T17:16:48.037Z,100668.88
2023-03-13T17:19:17.208Z,100673.59
2023-03-13T17:21:45.602Z,100666.22
2023-03-13T17:24:14.620Z,100665.25
2023-03-13T17:26:42.970Z,100681.09
2023-03-13T17:29:17.204Z,100662.84
2023-03-13T17:31:45.802Z,100666.63
2023-03-13T17:34:15.548Z,100665.50
2023-03-13T17:36:45.542Z,100668.41
2023-03-13T17:39:15.028Z,100662.13
2023-03-13T17:41:43.567Z,100664.03
2023-03-13T17:44:12.286Z,100656.81
2023-03-13T17:46:46.831Z,100652.56
2023-03-13T17:49:17.373Z,100656.06
2023-03-13T17:51:46.498Z,100652.69
2023-03-13T17:54:16.105Z,100657.06
2023-03-13T17:56:45.111Z,100642.75
2023-03-13T17:59:16.120Z,100645.69
2023-03-13T18:01:44.723Z,100640.50
2023-03-13T18:04:13.682Z,100645.81
2023-03-13T18:06:44.411Z,100644.25
2023-03-13T18:09:21.355Z,100637.97
2023-03-13T18:11:50.249Z,100639.78
2023-03-13T18:14:18.927Z,100637.25
2023-03-13T18:16:48.690Z,100633.47
2023-03-13T18:19:22.397Z,100633.47
2023-03-13T18:21:55.469Z,100630.09
2023-03-13T18:24:24.376Z,100634.84
2023-03-13T18:26:52.744Z,100634.84
2023-03-13T18:29:26.891Z,100631.22
2023-03-13T18:32:00.716Z,100634.84
2023-03-13T18:34:29.953Z,100631.94
2023-03-13T18:37:03.796Z,100624.91
2023-03-13T18:39:33.089Z,100627.56
2023-03-13T18:42:02.232Z,100620.03
2023-03-13T18:44:31.274Z,100623.94
2023-03-13T18:47:00.208Z,100617.91
2023-03-13T18:49:29.199Z,100611.88
2023-03-13T18:51:57.775Z,100617.22
2023-03-13T18:54:26.472Z,100612.72
2023-03-13T18:56:54.871Z,100622.53
2023-03-13T18:59:23.805Z,100613.72
2023-03-13T19:01:52.324Z,100610.19
2023-03-13T19:04:21.266Z,100607.66
2023-03-13T19:06:49.680Z,100600.53
2023-03-13T19:09:42.304Z,100601.50
2023-03-13T19:12:10.641Z,100605.72
2023-03-13T19:14:39.380Z,100594.50
2023-03-13T19:17:24.217Z,100596.16
2023-03-13T19:19:57.412Z,100597.00
2023-03-13T19:22:26.267Z,100573.66
2023-03-13T19:24:56.169Z,100575.34
2023-03-13T19:27:24.839Z,100578.84
2023-03-13T19:29:53.669Z,100570.03
2023-03-13T19:32:22.204Z,100569.03
2023-03-13T19:34:50.950Z,100571.69
2023-03-13T19:37:19.739Z,100568.19
2023-03-13T19:39:49.434Z,100569.03
2023-03-13T19:42:17.927Z,100570.97
2023-03-13T19:44:47.068Z,100571.84
2023-03-13T19:47:18.464Z,100565.66
2023-03-13T19:49:50.069Z,100566.66
2023-03-13T19:52:19.277Z,100570.97
2023-03-13T19:54:48.211Z,100578.97
2023-03-13T19:57:16.683Z,100569.31
2023-03-13T19:59:45.622Z,100574.63
2023-03-13T20:02:14.275Z,100574.63
2023-03-13T20:04:46.093Z,100565.94
2023-03-13T20:07:14.841Z,100565.09
2023-03-13T20:09:43.986Z,100559.91
2023-03-13T20:12:12.657Z,100565.94
2023-03-13T20:14:41.614Z,100562.41
2023-03-13T20:17:10.072Z,100566.91
2023-03-13T20:19:39.006Z,100547.44
2023-03-13T20:22:10.102Z,100553.59
2023-03-13T20:24:39.169Z,100547.44
2023-03-13T20:27:07.718Z,100555.44
2023-03-13T20:29:36.690Z,100551.94
2023-03-13T20:32:06.542Z,100547.44
2023-03-13T20:34:36.077Z,100538.63
2023-03-13T20:37:05.193Z,100538.75
2023-03-13T20:39:37.020Z,100534.28
2023-03-13T20:42:08.478Z,100537.75
2023-03-13T20:44:37.727Z,100535.09
2023-03-13T20:47:06.797Z,100541.28
2023-03-13T20:49:36.743Z,100538.75
2023-03-13T20:52:06.118Z,100533.56
2023-03-13T20:54:36.577Z,100530.91
2023-03-13T20:57:07.436Z,100537.06
2023-03-13T20:59:36.764Z,100539.72
2023-03-13T21:02:07.209Z,100533.56
2023-03-13T21:04:39.419Z,100535.38
2023-03-13T21:07:07.931Z,100539.88
2023-03-13T21:09:37.005Z,100543.38
2023-03-13T21:12:06.198Z,100548.56
2023-03-13T21:14:37.038Z,100536.22
2023-03-13T21:17:06.038Z,100523.91
2023-03-13T21:19:34.948Z,100526.56
2023-03-13T21:22:04.179Z,100523.91
2023-03-13T21:24:34.346Z,100531.03
2023-03-13T21:27:03.176Z,100529.25
2023-03-13T21:29:32.586Z,100527.53
2023-03-13T21:32:01.068Z,100521.38
2023-03-13T21:34:30.102Z,100516.91
2023-03-13T21:36:59.338Z,100507.09
2023-03-13T21:39:29.235Z,100497.44
2023-03-13T21:41:57.817Z,100492.13
2023-03-13T21:44:27.467Z,100494.78
2023-03-13T21:46:56.772Z,100484.97
2023-03-13T21:49:26.141Z,100463.81
2023-03-13T21:51:56.564Z,100462.97
2023-03-13T21:54:27.307Z,100456.81
2023-03-13T21:56:55.778Z,100453.16
2023-03-13T21:59:27.442Z,100455.00
2023-03-13T22:01:56.685Z,100455.72
2023-03-13T22:04:26.071Z,100448.72
2023-03-13T22:06:54.798Z,100432.88
2023-03-13T22:09:23.686Z,100433.72
2023-03-13T22:11:52.974Z,100428.41
2023-03-13T22:14:22.116Z,100432.88
2023-03-13T22:16:50.714Z,100433.72
2023-03-13T22:19:19.884Z,100417.75
2023-03-13T22:21:48.420Z,100425.75
2023-03-13T22:24:17.545Z,100411.59
2023-03-13T22:26:46.094Z,100418.72
2023-03-13T22:29:14.854Z,100406.28
2023-03-13T22:31:43.373Z,100406.28
2023-03-13T22:34:12.450Z,100410.75
2023-03-13T22:36:40.876Z,100403.63
2023-03-13T22:39:10.017Z,100389.47
2023-03-13T22:41:38.532Z,100378.81
2023-03-13T22:44:07.819Z,100389.47
2023-03-13T22:46:36.622Z,100388.63
2023-03-13T22:49:05.361Z,100373.50
2023-03-13T22:51:34.199Z,100366.50
2023-03-13T22:54:03.263Z,100357.53
2023-03-13T22:56:32.426Z,100349.56
2023-03-13T22:59:03.255Z,100331.94
2023-03-13T23:01:31.784Z,100319.59
2023-03-13T23:04:00.760Z,100321.41
2023-03-13T23:06:29.216Z,100321.28
2023-03-13T23:08:58.150Z,100308.94
2023-03-13T23:11:26.686Z,100300.97
2023-03-13T23:13:55.506Z,100294.81
2023-03-13T23:16:24.028Z,100279.69
2023-03-13T23:18:52.856Z,100284.31
2023-03-13T23:21:21.273Z,100286.00
2023-03-13T23:23:53.228Z,100279.69
2023-03-13T23:26:22.273Z,100268.34
2023-03-13T23:28:51.403Z,100268.22
2023-03-13T23:31:21.646Z,100257.72
2023-03-13T23:33:50.490Z,100272.72
2023-03-13T23:36:19.502Z,100262.06
2023-03-13T23:38:52.816Z,100255.06
2023-03-13T23:41:21.245Z,100252.41
2023-03-13T23:43:49.978Z,100249.75
2023-03-13T23:46:28.264Z,100228.47
2023-03-13T23:48:58.339Z,100210.00
2023-03-13T23:51:26.871Z,100201.84
2023-03-13T23:53:55.653Z,100198.50
2023-03-13T23:56:29.780Z,100204.81
2023-03-13T23:58:58.667Z,100214.47
